TimeCDT,TemperatureF,Dew PointF,Humidity,Sea Level PressureIn,VisibilityMPH,Wind Direction,Wind SpeedMPH,Gust SpeedMPH,PrecipitationIn,Events,Conditions,WindDirDegrees,DateUTC
12:15 AM,53.6,51.8,94,29.70,10.0,SSE,4.6,-,N/A,,Clear,160,2013-03-10 06:15:00
12:35 AM,53.6,51.8,94,29.71,10.0,South,10.4,-,N/A,,Clear,170,2013-03-10 06:35:00
12:55 AM,53.6,51.8,94,29.73,10.0,South,10.4,-,N/A,,Clear,170,2013-03-10 06:55:00
1:15 AM,53.6,51.8,94,29.74,10.0,SSW,8.1,-,N/A,,Scattered Clouds,200,2013-03-10 07:15:00
1:35 AM,51.8,51.8,100,29.72,10.0,South,8.1,-,N/A,,Clear,170,2013-03-10 07:35:00
3:15 AM,51.8,50.0,94,29.72,10.0,SSW,8.1,-,N/A,,Mostly Cloudy,210,2013-03-10 08:15:00
3:35 AM,51.8,50.0,94,29.73,10.0,SSW,10.4,-,N/A,,Clear,200,2013-03-10 08:35:00
3:55 AM,51.8,51.8,100,29.73,10.0,SW,4.6,10.4,N/A,,Drizzle,230,2013-03-10 08:55:00
4:15 AM,51.8,50.0,94,29.74,10.0,SW,6.9,-,N/A,Rain,Light Rain,220,2013-03-10 09:15:00
4:35 AM,51.8,50.0,94,29.73,10.0,South,4.6,-,0.01,Rain,Light Rain,190,2013-03-10 09:35:00
4:55 AM,51.8,50.0,94,29.71,10.0,SE,11.5,-,0.01,Rain,Light Rain,140,2013-03-10 09:55:00
5:15 AM,51.8,50.0,94,29.67,10.0,SE,10.4,-,N/A,,Light Drizzle,140,2013-03-10 10:15:00
5:35 AM,51.8,50.0,94,29.68,10.0,SSE,13.8,-,N/A,,Clear,150,2013-03-10 10:35:00
5:55 AM,51.8,50.0,94,29.70,10.0,SSE,17.3,-,N/A,Rain,Light Rain,150,2013-03-10 10:55:00
6:15 AM,51.8,50.0,94,29.73,10.0,South,10.4,21.9,N/A,Rain,Light Rain,170,2013-03-10 11:15:00
6:35 AM,51.8,50.0,94,29.67,7.0,SSE,12.7,19.6,0.02,Rain,Rain,150,2013-03-10 11:35:00
6:55 AM,51.8,48.2,88,29.70,10.0,South,13.8,18.4,0.02,,Mostly Cloudy,170,2013-03-10 11:55:00
7:15 AM,50.0,46.4,87,29.72,10.0,South,11.5,-,N/A,Rain,Light Rain,190,2013-03-10 12:15:00
7:35 AM,50.0,44.6,82,29.69,10.0,WNW,18.4,21.9,N/A,,Mostly Cloudy,300,2013-03-10 12:35:00
7:55 AM,46.4,42.8,87,29.75,10.0,WNW,13.8,20.7,N/A,,Light Drizzle,290,2013-03-10 12:55:00
8:15 AM,44.6,42.8,93,29.73,10.0,NW,5.8,-,N/A,,Mostly Cloudy,310,2013-03-10 13:15:00
8:35 AM,42.8,39.2,87,29.74,10.0,WNW,11.5,-,N/A,,Mostly Cloudy,290,2013-03-10 13:35:00
8:55 AM,42.8,39.2,87,29.74,10.0,WNW,9.2,16.1,N/A,,Mostly Cloudy,300,2013-03-10 13:55:00
9:15 AM,42.8,39.2,87,29.76,10.0,West,9.2,18.4,N/A,,Overcast,280,2013-03-10 14:15:00
9:35 AM,42.8,39.2,87,29.78,10.0,West,13.8,19.6,N/A,,Overcast,280,2013-03-10 14:35:00
9:55 AM,42.8,39.2,87,29.75,10.0,WNW,12.7,17.3,N/A,,Overcast,290,2013-03-10 14:55:00
10:15 AM,42.8,39.2,87,29.77,10.0,West,12.7,-,N/A,,Overcast,270,2013-03-10 15:15:00
10:35 AM,42.8,39.2,87,29.77,10.0,West,8.1,-,N/A,,Overcast,270,2013-03-10 15:35:00
10:55 AM,42.8,39.2,87,29.76,10.0,West,9.2,-,N/A,,Overcast,280,2013-03-10 15:55:00
11:15 AM,42.8,39.2,87,29.78,10.0,West,13.8,17.3,N/A,,Overcast,260,2013-03-10 16:15:00
11:35 AM,42.8,37.4,81,29.78,10.0,West,13.8,19.6,N/A,,Overcast,270,2013-03-10 16:35:00
11:55 AM,42.8,37.4,81,29.79,10.0,West,16.1,-,N/A,,Overcast,280,2013-03-10 16:55:00
12:15 PM,41.0,37.4,87,29.80,10.0,WNW,13.8,20.7,N/A,,Overcast,290,2013-03-10 17:15:00
12:35 PM,41.0,37.4,87,29.80,10.0,WNW,13.8,-,N/A,,Overcast,290,2013-03-10 17:35:00
1:15 PM,41.0,37.4,87,29.82,10.0,WNW,15.0,19.6,N/A,,Overcast,290,2013-03-10 18:15:00
1:35 PM,41.0,35.6,81,29.83,10.0,WNW,16.1,23.0,N/A,,Overcast,290,2013-03-10 18:35:00
1:55 PM,39.2,35.6,87,29.84,10.0,WNW,16.1,-,N/A,,Overcast,290,2013-03-10 18:55:00
2:15 PM,39.2,35.6,87,29.85,10.0,WNW,17.3,20.7,N/A,,Overcast,290,2013-03-10 19:15:00
2:35 PM,37.4,33.8,87,29.86,7.0,WNW,17.3,21.9,N/A,,Overcast,290,2013-03-10 19:35:00
2:55 PM,37.4,35.6,93,29.86,3.0,West,15.0,19.6,N/A,,Heavy Drizzle,280,2013-03-10 19:55:00
3:15 PM,37.4,35.6,93,29.87,3.0,WNW,13.8,19.6,N/A,,Overcast,300,2013-03-10 20:15:00
3:35 PM,37.4,35.6,93,29.88,4.0,NW,12.7,18.4,N/A,Rain,Light Rain,320,2013-03-10 20:35:00
4:15 PM,35.6,33.8,93,29.91,4.0,NW,13.8,20.7,N/A,,Overcast,310,2013-03-10 21:15:00
4:35 PM,35.6,32.0,87,29.92,10.0,WNW,18.4,25.3,N/A,,Overcast,300,2013-03-10 21:35:00
4:55 PM,35.6,32.0,87,29.93,10.0,WNW,15.0,23.0,N/A,,Overcast,300,2013-03-10 21:55:00
5:15 PM,33.8,32.0,93,29.93,7.0,WNW,16.1,19.6,N/A,,Overcast,300,2013-03-10 22:15:00
5:35 PM,33.8,32.0,93,29.95,10.0,NW,13.8,20.7,N/A,,Overcast,310,2013-03-10 22:35:00
5:55 PM,33.8,30.2,87,29.95,10.0,NW,13.8,19.6,N/A,,Overcast,320,2013-03-10 22:55:00
6:15 PM,33.8,28.4,81,29.97,10.0,NW,18.4,23.0,N/A,,Overcast,310,2013-03-10 23:15:00
6:35 PM,32.0,28.4,87,29.97,10.0,NW,11.5,21.9,N/A,,Overcast,310,2013-03-10 23:35:00
6:55 PM,32.0,28.4,87,29.98,10.0,NW,9.2,21.9,N/A,,Overcast,310,2013-03-10 23:55:00
7:15 PM,32.0,26.6,80,29.98,10.0,NNW,12.7,19.6,N/A,,Mostly Cloudy,330,2013-03-11 00:15:00
7:35 PM,32.0,26.6,80,29.99,10.0,NNW,8.1,-,N/A,,Mostly Cloudy,330,2013-03-11 00:35:00
7:55 PM,32.0,26.6,80,30.00,10.0,NW,9.2,-,N/A,,Mostly Cloudy,320,2013-03-11 00:55:00
8:15 PM,32.0,26.6,80,30.00,10.0,NW,11.5,17.3,N/A,,Mostly Cloudy,320,2013-03-11 01:15:00
8:35 PM,32.0,26.6,80,30.01,10.0,NW,11.5,16.1,N/A,,Mostly Cloudy,320,2013-03-11 01:35:00
8:55 PM,32.0,26.6,80,30.02,10.0,NW,9.2,18.4,N/A,,Mostly Cloudy,320,2013-03-11 01:55:00
9:15 PM,32.0,26.6,80,30.02,10.0,NW,16.1,20.7,N/A,,Overcast,310,2013-03-11 02:15:00
9:35 PM,32.0,26.6,80,30.02,10.0,NW,13.8,19.6,N/A,,Overcast,310,2013-03-11 02:35:00
9:55 PM,32.0,26.6,80,30.03,10.0,NW,10.4,-,N/A,,Overcast,320,2013-03-11 02:55:00
10:15 PM,32.0,26.6,80,30.04,10.0,NW,11.5,17.3,N/A,,Overcast,320,2013-03-11 03:15:00
10:35 PM,32.0,26.6,80,30.04,10.0,NW,10.4,17.3,N/A,,Mostly Cloudy,320,2013-03-11 03:35:00
10:55 PM,32.0,26.6,80,30.05,10.0,NW,12.7,18.4,N/A,,Mostly Cloudy,310,2013-03-11 03:55:00
11:15 PM,32.0,26.6,80,30.06,10.0,WNW,9.2,17.3,N/A,,Mostly Cloudy,300,2013-03-11 04:15:00
11:35 PM,32.0,26.6,80,30.06,10.0,WNW,10.4,-,N/A,,Mostly Cloudy,300,2013-03-11 04:35:00
12:15 AM,32.0,24.8,75,30.05,10.0,NW,12.7,20.7,N/A,,Mostly Cloudy,320,2013-03-11 05:15:00
12:35 AM,32.0,24.8,75,30.05,10.0,WNW,10.4,-,N/A,,Mostly Cloudy,300,2013-03-11 05:35:00
12:55 AM,32.0,24.8,75,30.05,10.0,NW,9.2,-,N/A,,Mostly Cloudy,310,2013-03-11 05:55:00